X  Cerrar Datos meteorológicos de aviación METAR        LEGR Granada
Temperatura
17°C Temperatura
3°C Punto de rocío
39% Humedad



Viento
2 KM/H
1 MPH
0 M/S
1 NUDO



-1°
VRB
Condiciones actuales

Mostly Cloudy Mayormente nublado
Presión 1017 (hPa) - 30.02 (inHg)
Visibilidad 30 (milla) - 48 (km)
Aeropuerto
Código de aeropuerto LEGR

localidad: Granada
Distancia: 56 (km)

Metar:
METAR LEGR 192330Z AUTO VRB01KT 9999 BKN110 17/03 Q1018

Hora: 20-10-2020 01:30 CEST